sensor_id;sensor_type;location;lat;lon;timestamp;temperature;humidity
12839;DHT22;6486;51.034;5.262;2024-03-17T00:00:32;20.80;46.90
12839;DHT22;6486;51.034;5.262;2024-03-17T00:02:58;20.80;47.00
12839;DHT22;6486;51.034;5.262;2024-03-17T00:05:24;20.80;46.90
12839;DHT22;6486;51.034;5.262;2024-03-17T00:07:49;20.90;47.00
12839;DHT22;6486;51.034;5.262;2024-03-17T00:10:15;20.90;47.00
12839;DHT22;6486;51.034;5.262;2024-03-17T00:12:41;20.90;47.00
12839;DHT22;6486;51.034;5.262;2024-03-17T00:15:08;20.90;47.00
12839;DHT22;6486;51.034;5.262;2024-03-17T00:17:34;20.90;47.00
12839;DHT22;6486;51.034;5.262;2024-03-17T00:20:03;20.90;47.00
12839;DHT22;6486;51.034;5.262;2024-03-17T00:22:35;20.80;46.90
12839;DHT22;6486;51.034;5.262;2024-03-17T00:25:05;20.90;47.00
12839;DHT22;6486;51.034;5.262;2024-03-17T00:27:31;20.90;47.00
12839;DHT22;6486;51.034;5.262;2024-03-17T00:29:57;20.90;47.00
12839;DHT22;6486;51.034;5.262;2024-03-17T00:32:23;20.90;47.00
12839;DHT22;6486;51.034;5.262;2024-03-17T00:34:49;20.90;47.00
12839;DHT22;6486;51.034;5.262;2024-03-17T00:37:15;20.90;47.00
12839;DHT22;6486;51.034;5.262;2024-03-17T00:39:41;20.90;47.00
12839;DHT22;6486;51.034;5.262;2024-03-17T00:42:06;20.90;47.00
12839;DHT22;6486;51.034;5.262;2024-03-17T00:44:32;20.90;47.00
12839;DHT22;6486;51.034;5.262;2024-03-17T00:46:58;20.90;47.00
12839;DHT22;6486;51.034;5.262;2024-03-17T00:49:23;20.90;47.00
12839;DHT22;6486;51.034;5.262;2024-03-17T00:51:49;20.90;47.00
12839;DHT22;6486;51.034;5.262;2024-03-17T00:54:15;20.90;47.00
12839;DHT22;6486;51.034;5.262;2024-03-17T00:56:43;20.90;47.00
12839;DHT22;6486;51.034;5.262;2024-03-17T00:59:09;20.90;47.00
12839;DHT22;6486;51.034;5.262;2024-03-17T01:01:34;20.90;47.00
12839;DHT22;6486;51.034;5.262;2024-03-17T01:04:00;20.90;47.00
12839;DHT22;6486;51.034;5.262;2024-03-17T01:06:26;20.90;47.60
12839;DHT22;6486;51.034;5.262;2024-03-17T01:08:52;20.90;47.00
12839;DHT22;6486;51.034;5.262;2024-03-17T01:11:18;20.90;47.00
12839;DHT22;6486;51.034;5.262;2024-03-17T01:13:47;20.90;47.00
12839;DHT22;6486;51.034;5.262;2024-03-17T01:16:13;20.90;47.60
12839;DHT22;6486;51.034;5.262;2024-03-17T01:18:39;20.90;47.00
12839;DHT22;6486;51.034;5.262;2024-03-17T01:21:06;20.90;47.00
12839;DHT22;6486;51.034;5.262;2024-03-17T01:23:32;20.90;47.00
12839;DHT22;6486;51.034;5.262;2024-03-17T01:25:58;20.90;46.90
12839;DHT22;6486;51.034;5.262;2024-03-17T01:28:24;20.90;46.90
12839;DHT22;6486;51.034;5.262;2024-03-17T01:30:49;20.90;46.90
12839;DHT22;6486;51.034;5.262;2024-03-17T01:33:15;20.90;47.00
12839;DHT22;6486;51.034;5.262;2024-03-17T01:35:43;20.90;47.00
12839;DHT22;6486;51.034;5.262;2024-03-17T01:38:08;20.90;46.90
12839;DHT22;6486;51.034;5.262;2024-03-17T01:40:36;20.90;47.00
12839;DHT22;6486;51.034;5.262;2024-03-17T01:43:02;20.90;47.00
12839;DHT22;6486;51.034;5.262;2024-03-17T01:45:29;20.90;47.00
12839;DHT22;6486;51.034;5.262;2024-03-17T01:47:56;20.90;47.00
12839;DHT22;6486;51.034;5.262;2024-03-17T01:50:26;20.90;47.00
12839;DHT22;6486;51.034;5.262;2024-03-17T01:52:57;20.90;47.00
12839;DHT22;6486;51.034;5.262;2024-03-17T01:55:26;20.90;47.00
12839;DHT22;6486;51.034;5.262;2024-03-17T01:57:53;20.90;47.00
12839;DHT22;6486;51.034;5.262;2024-03-17T02:00:19;20.90;47.00
12839;DHT22;6486;51.034;5.262;2024-03-17T02:02:45;20.90;47.00
12839;DHT22;6486;51.034;5.262;2024-03-17T02:05:10;20.90;46.90
12839;DHT22;6486;51.034;5.262;2024-03-17T02:07:36;20.90;46.90
12839;DHT22;6486;51.034;5.262;2024-03-17T02:10:02;20.90;46.90
12839;DHT22;6486;51.034;5.262;2024-03-17T02:12:31;20.90;46.90
12839;DHT22;6486;51.034;5.262;2024-03-17T02:14:58;20.90;46.90
12839;DHT22;6486;51.034;5.262;2024-03-17T02:17:24;20.90;46.90
12839;DHT22;6486;51.034;5.262;2024-03-17T02:19:51;20.90;46.90
12839;DHT22;6486;51.034;5.262;2024-03-17T02:22:18;20.90;47.00
12839;DHT22;6486;51.034;5.262;2024-03-17T02:24:44;20.90;46.90
12839;DHT22;6486;51.034;5.262;2024-03-17T02:27:10;20.90;46.90
12839;DHT22;6486;51.034;5.262;2024-03-17T02:29:36;20.90;46.90
12839;DHT22;6486;51.034;5.262;2024-03-17T02:32:05;20.90;46.90
12839;DHT22;6486;51.034;5.262;2024-03-17T02:34:35;20.90;46.90
12839;DHT22;6486;51.034;5.262;2024-03-17T02:37:01;20.90;47.00
12839;DHT22;6486;51.034;5.262;2024-03-17T02:39:28;20.90;46.90
12839;DHT22;6486;51.034;5.262;2024-03-17T02:42:07;20.90;47.00
12839;DHT22;6486;51.034;5.262;2024-03-17T02:44:34;20.90;47.00
12839;DHT22;6486;51.034;5.262;2024-03-17T02:47:01;20.90;46.90
12839;DHT22;6486;51.034;5.262;2024-03-17T02:49:28;20.90;47.00
12839;DHT22;6486;51.034;5.262;2024-03-17T02:52:01;20.90;47.00
12839;DHT22;6486;51.034;5.262;2024-03-17T02:54:26;20.90;46.90
12839;DHT22;6486;51.034;5.262;2024-03-17T02:56:52;20.90;46.90
12839;DHT22;6486;51.034;5.262;2024-03-17T02:59:18;20.90;46.90
12839;DHT22;6486;51.034;5.262;2024-03-17T03:01:43;20.90;46.90
12839;DHT22;6486;51.034;5.262;2024-03-17T03:04:10;20.90;46.90
12839;DHT22;6486;51.034;5.262;2024-03-17T03:06:37;20.90;46.90
12839;DHT22;6486;51.034;5.262;2024-03-17T03:09:03;20.90;46.90
12839;DHT22;6486;51.034;5.262;2024-03-17T03:11:31;20.90;46.90
12839;DHT22;6486;51.034;5.262;2024-03-17T03:13:56;20.90;46.90
12839;DHT22;6486;51.034;5.262;2024-03-17T03:16:22;20.90;46.90
12839;DHT22;6486;51.034;5.262;2024-03-17T03:18:50;20.90;46.90
12839;DHT22;6486;51.034;5.262;2024-03-17T03:21:16;20.90;46.90
12839;DHT22;6486;51.034;5.262;2024-03-17T03:23:43;20.90;46.90
12839;DHT22;6486;51.034;5.262;2024-03-17T03:26:09;20.90;46.90
12839;DHT22;6486;51.034;5.262;2024-03-17T03:28:35;20.90;46.90
12839;DHT22;6486;51.034;5.262;2024-03-17T03:31:01;20.90;46.90
12839;DHT22;6486;51.034;5.262;2024-03-17T03:33:27;20.90;46.90
12839;DHT22;6486;51.034;5.262;2024-03-17T03:35:53;20.90;46.90
12839;DHT22;6486;51.034;5.262;2024-03-17T03:38:20;20.90;46.90
12839;DHT22;6486;51.034;5.262;2024-03-17T03:40:47;20.90;46.90
12839;DHT22;6486;51.034;5.262;2024-03-17T03:43:14;20.90;46.90
12839;DHT22;6486;51.034;5.262;2024-03-17T03:45:40;20.90;46.90
12839;DHT22;6486;51.034;5.262;2024-03-17T03:48:07;20.90;46.90
12839;DHT22;6486;51.034;5.262;2024-03-17T03:50:37;20.90;46.90
12839;DHT22;6486;51.034;5.262;2024-03-17T03:53:04;20.90;46.90
12839;DHT22;6486;51.034;5.262;2024-03-17T03:55:31;20.90;46.80
12839;DHT22;6486;51.034;5.262;2024-03-17T03:57:56;20.90;46.80
12839;DHT22;6486;51.034;5.262;2024-03-17T04:00:22;20.90;46.80
12839;DHT22;6486;51.034;5.262;2024-03-17T04:02:51;20.90;46.80
12839;DHT22;6486;51.034;5.262;2024-03-17T04:05:18;20.90;46.80
12839;DHT22;6486;51.034;5.262;2024-03-17T04:07:45;20.90;46.80
12839;DHT22;6486;51.034;5.262;2024-03-17T04:10:12;20.90;46.80
12839;DHT22;6486;51.034;5.262;2024-03-17T04:12:38;20.90;46.80
12839;DHT22;6486;51.034;5.262;2024-03-17T04:15:04;20.90;46.80
12839;DHT22;6486;51.034;5.262;2024-03-17T04:17:32;20.90;46.80
12839;DHT22;6486;51.034;5.262;2024-03-17T04:19:58;20.90;46.80
12839;DHT22;6486;51.034;5.262;2024-03-17T04:22:24;20.90;46.80
12839;DHT22;6486;51.034;5.262;2024-03-17T04:24:51;20.90;46.80
12839;DHT22;6486;51.034;5.262;2024-03-17T04:27:23;20.90;46.90
12839;DHT22;6486;51.034;5.262;2024-03-17T04:29:56;20.90;46.90
12839;DHT22;6486;51.034;5.262;2024-03-17T04:32:22;20.90;46.80
12839;DHT22;6486;51.034;5.262;2024-03-17T04:34:48;20.90;46.80
12839;DHT22;6486;51.034;5.262;2024-03-17T04:37:14;20.90;46.80
12839;DHT22;6486;51.034;5.262;2024-03-17T04:39:41;20.90;46.80
12839;DHT22;6486;51.034;5.262;2024-03-17T04:42:14;20.90;46.80
12839;DHT22;6486;51.034;5.262;2024-03-17T04:44:40;20.90;46.80
12839;DHT22;6486;51.034;5.262;2024-03-17T04:47:06;20.90;46.80
12839;DHT22;6486;51.034;5.262;2024-03-17T04:49:43;21.00;46.90
12839;DHT22;6486;51.034;5.262;2024-03-17T04:52:10;20.90;46.80
12839;DHT22;6486;51.034;5.262;2024-03-17T04:54:36;20.90;46.80
12839;DHT22;6486;51.034;5.262;2024-03-17T04:57:02;20.90;46.70
12839;DHT22;6486;51.034;5.262;2024-03-17T04:59:28;20.90;46.80
12839;DHT22;6486;51.034;5.262;2024-03-17T05:01:54;20.90;46.80
12839;DHT22;6486;51.034;5.262;2024-03-17T05:04:20;20.90;46.80
12839;DHT22;6486;51.034;5.262;2024-03-17T05:06:46;20.90;46.80
12839;DHT22;6486;51.034;5.262;2024-03-17T05:09:13;20.90;46.80
12839;DHT22;6486;51.034;5.262;2024-03-17T05:11:39;20.90;46.80
12839;DHT22;6486;51.034;5.262;2024-03-17T05:14:05;20.90;46.80
12839;DHT22;6486;51.034;5.262;2024-03-17T05:16:31;20.90;46.70
12839;DHT22;6486;51.034;5.262;2024-03-17T05:18:57;20.90;46.80
12839;DHT22;6486;51.034;5.262;2024-03-17T05:21:23;20.90;47.40
12839;DHT22;6486;51.034;5.262;2024-03-17T05:23:49;20.90;46.80
12839;DHT22;6486;51.034;5.262;2024-03-17T05:26:15;20.90;46.80
12839;DHT22;6486;51.034;5.262;2024-03-17T05:28:41;20.90;46.80
12839;DHT22;6486;51.034;5.262;2024-03-17T05:31:06;20.90;46.80
12839;DHT22;6486;51.034;5.262;2024-03-17T05:33:32;20.90;46.70
12839;DHT22;6486;51.034;5.262;2024-03-17T05:35:59;21.00;46.90
12839;DHT22;6486;51.034;5.262;2024-03-17T05:38:26;20.90;46.80
12839;DHT22;6486;51.034;5.262;2024-03-17T05:41:00;21.00;46.90
12839;DHT22;6486;51.034;5.262;2024-03-17T05:43:28;20.90;46.80
12839;DHT22;6486;51.034;5.262;2024-03-17T05:45:57;20.90;46.70
12839;DHT22;6486;51.034;5.262;2024-03-17T05:48:23;21.00;46.80
12839;DHT22;6486;51.034;5.262;2024-03-17T05:50:50;21.00;46.80
12839;DHT22;6486;51.034;5.262;2024-03-17T05:53:19;20.90;46.70
12839;DHT22;6486;51.034;5.262;2024-03-17T05:55:45;20.90;46.70
12839;DHT22;6486;51.034;5.262;2024-03-17T05:58:11;21.00;46.80
12839;DHT22;6486;51.034;5.262;2024-03-17T06:00:40;21.00;46.80
12839;DHT22;6486;51.034;5.262;2024-03-17T06:03:06;20.90;47.30
12839;DHT22;6486;51.034;5.262;2024-03-17T06:05:33;21.00;46.80
12839;DHT22;6486;51.034;5.262;2024-03-17T06:08:03;20.90;46.70
12839;DHT22;6486;51.034;5.262;2024-03-17T06:10:33;20.90;46.70
12839;DHT22;6486;51.034;5.262;2024-03-17T06:13:00;20.90;46.70
12839;DHT22;6486;51.034;5.262;2024-03-17T06:15:26;20.90;46.70
12839;DHT22;6486;51.034;5.262;2024-03-17T06:17:53;20.90;46.70
12839;DHT22;6486;51.034;5.262;2024-03-17T06:20:19;20.90;46.80
12839;DHT22;6486;51.034;5.262;2024-03-17T06:22:45;20.90;46.70
12839;DHT22;6486;51.034;5.262;2024-03-17T06:25:12;21.00;46.80
12839;DHT22;6486;51.034;5.262;2024-03-17T06:27:37;20.90;46.70
12839;DHT22;6486;51.034;5.262;2024-03-17T06:30:03;20.90;46.70
12839;DHT22;6486;51.034;5.262;2024-03-17T06:32:33;21.00;46.80
12839;DHT22;6486;51.034;5.262;2024-03-17T06:35:02;21.00;47.40
12839;DHT22;6486;51.034;5.262;2024-03-17T06:37:28;20.90;46.70
12839;DHT22;6486;51.034;5.262;2024-03-17T06:39:53;21.00;46.80
12839;DHT22;6486;51.034;5.262;2024-03-17T06:42:19;21.00;46.80
12839;DHT22;6486;51.034;5.262;2024-03-17T06:44:45;21.00;46.80
12839;DHT22;6486;51.034;5.262;2024-03-17T06:47:10;21.00;46.80
12839;DHT22;6486;51.034;5.262;2024-03-17T06:49:36;21.00;46.80
12839;DHT22;6486;51.034;5.262;2024-03-17T06:52:02;21.00;46.80
12839;DHT22;6486;51.034;5.262;2024-03-17T06:54:28;21.00;46.70
12839;DHT22;6486;51.034;5.262;2024-03-17T06:56:53;21.00;46.80
12839;DHT22;6486;51.034;5.262;2024-03-17T06:59:19;21.00;46.80
12839;DHT22;6486;51.034;5.262;2024-03-17T07:01:46;21.00;46.80
12839;DHT22;6486;51.034;5.262;2024-03-17T07:04:12;21.00;46.70
12839;DHT22;6486;51.034;5.262;2024-03-17T07:06:38;21.00;46.70
12839;DHT22;6486;51.034;5.262;2024-03-17T07:09:04;21.00;46.70
12839;DHT22;6486;51.034;5.262;2024-03-17T07:11:30;21.00;46.80
12839;DHT22;6486;51.034;5.262;2024-03-17T07:13:57;21.00;46.80
12839;DHT22;6486;51.034;5.262;2024-03-17T07:16:23;21.00;46.80
12839;DHT22;6486;51.034;5.262;2024-03-17T07:18:51;21.00;46.80
12839;DHT22;6486;51.034;5.262;2024-03-17T07:21:18;21.00;46.80
12839;DHT22;6486;51.034;5.262;2024-03-17T07:23:44;21.00;46.80
12839;DHT22;6486;51.034;5.262;2024-03-17T07:26:10;20.90;46.70
12839;DHT22;6486;51.034;5.262;2024-03-17T07:28:36;21.00;46.80
12839;DHT22;6486;51.034;5.262;2024-03-17T07:31:08;21.00;46.80
12839;DHT22;6486;51.034;5.262;2024-03-17T07:33:34;21.00;46.80
12839;DHT22;6486;51.034;5.262;2024-03-17T07:36:00;20.90;46.70
12839;DHT22;6486;51.034;5.262;2024-03-17T07:38:27;21.00;46.80
12839;DHT22;6486;51.034;5.262;2024-03-17T07:41:04;20.90;46.70
12839;DHT22;6486;51.034;5.262;2024-03-17T07:43:35;21.00;46.80
12839;DHT22;6486;51.034;5.262;2024-03-17T07:46:03;21.00;46.80
12839;DHT22;6486;51.034;5.262;2024-03-17T07:48:33;20.90;46.70
12839;DHT22;6486;51.034;5.262;2024-03-17T07:51:01;20.90;46.80
12839;DHT22;6486;51.034;5.262;2024-03-17T07:53:32;20.90;46.80
12839;DHT22;6486;51.034;5.262;2024-03-17T07:56:09;20.90;46.80
12839;DHT22;6486;51.034;5.262;2024-03-17T07:58:37;20.90;46.80
12839;DHT22;6486;51.034;5.262;2024-03-17T08:01:10;20.90;46.80
12839;DHT22;6486;51.034;5.262;2024-03-17T08:03:38;20.90;46.90
12839;DHT22;6486;51.034;5.262;2024-03-17T08:06:06;20.90;46.80
12839;DHT22;6486;51.034;5.262;2024-03-17T08:08:32;20.90;46.90
12839;DHT22;6486;51.034;5.262;2024-03-17T08:10:58;20.90;47.50
12839;DHT22;6486;51.034;5.262;2024-03-17T08:13:24;20.90;46.90
12839;DHT22;6486;51.034;5.262;2024-03-17T08:16:04;20.90;46.90
12839;DHT22;6486;51.034;5.262;2024-03-17T08:18:36;20.90;46.90
12839;DHT22;6486;51.034;5.262;2024-03-17T08:21:03;20.90;46.90
12839;DHT22;6486;51.034;5.262;2024-03-17T08:23:30;20.90;46.90
12839;DHT22;6486;51.034;5.262;2024-03-17T08:26:02;20.90;46.90
12839;DHT22;6486;51.034;5.262;2024-03-17T08:28:28;20.90;46.90
12839;DHT22;6486;51.034;5.262;2024-03-17T08:30:58;20.90;46.90
12839;DHT22;6486;51.034;5.262;2024-03-17T08:33:24;20.90;46.90
12839;DHT22;6486;51.034;5.262;2024-03-17T08:38:29;20.90;46.90
12839;DHT22;6486;51.034;5.262;2024-03-17T08:40:55;20.90;47.50
12839;DHT22;6486;51.034;5.262;2024-03-17T08:43:22;20.90;46.90
12839;DHT22;6486;51.034;5.262;2024-03-17T08:48:29;20.90;46.90
12839;DHT22;6486;51.034;5.262;2024-03-17T08:50:56;20.90;46.90
12839;DHT22;6486;51.034;5.262;2024-03-17T08:53:23;20.90;46.90
12839;DHT22;6486;51.034;5.262;2024-03-17T08:55:49;20.90;46.90
12839;DHT22;6486;51.034;5.262;2024-03-17T08:58:16;20.90;46.90
12839;DHT22;6486;51.034;5.262;2024-03-17T09:00:42;20.90;46.90
12839;DHT22;6486;51.034;5.262;2024-03-17T09:03:08;20.90;46.90
12839;DHT22;6486;51.034;5.262;2024-03-17T09:05:41;20.90;46.90
12839;DHT22;6486;51.034;5.262;2024-03-17T09:08:07;20.90;47.00
12839;DHT22;6486;51.034;5.262;2024-03-17T09:10:40;20.90;46.90
12839;DHT22;6486;51.034;5.262;2024-03-17T09:13:06;20.90;46.90
12839;DHT22;6486;51.034;5.262;2024-03-17T09:15:31;20.90;47.00
12839;DHT22;6486;51.034;5.262;2024-03-17T09:17:57;20.90;46.90
12839;DHT22;6486;51.034;5.262;2024-03-17T09:20:24;20.90;47.00
12839;DHT22;6486;51.034;5.262;2024-03-17T09:22:50;20.90;47.00
12839;DHT22;6486;51.034;5.262;2024-03-17T09:25:15;21.00;47.10
12839;DHT22;6486;51.034;5.262;2024-03-17T09:27:42;20.90;47.00
12839;DHT22;6486;51.034;5.262;2024-03-17T09:30:08;20.90;47.00
12839;DHT22;6486;51.034;5.262;2024-03-17T09:32:36;20.90;47.00
12839;DHT22;6486;51.034;5.262;2024-03-17T09:35:03;20.90;47.00
12839;DHT22;6486;51.034;5.262;2024-03-17T09:37:30;20.90;47.00
12839;DHT22;6486;51.034;5.262;2024-03-17T09:39:59;20.90;47.00
12839;DHT22;6486;51.034;5.262;2024-03-17T09:42:26;21.00;47.10
12839;DHT22;6486;51.034;5.262;2024-03-17T09:44:53;20.90;47.00
12839;DHT22;6486;51.034;5.262;2024-03-17T09:47:23;20.90;47.00
12839;DHT22;6486;51.034;5.262;2024-03-17T09:49:49;20.90;47.00
12839;DHT22;6486;51.034;5.262;2024-03-17T09:52:24;21.00;47.10
12839;DHT22;6486;51.034;5.262;2024-03-17T09:55:00;21.00;47.10
12839;DHT22;6486;51.034;5.262;2024-03-17T09:57:26;21.00;47.10
12839;DHT22;6486;51.034;5.262;2024-03-17T09:59:55;21.00;47.10
12839;DHT22;6486;51.034;5.262;2024-03-17T10:02:21;21.00;47.10
12839;DHT22;6486;51.034;5.262;2024-03-17T10:04:48;21.00;47.10
12839;DHT22;6486;51.034;5.262;2024-03-17T10:07:13;21.00;47.10
12839;DHT22;6486;51.034;5.262;2024-03-17T10:09:41;20.90;47.00
12839;DHT22;6486;51.034;5.262;2024-03-17T10:12:28;21.00;47.10
12839;DHT22;6486;51.034;5.262;2024-03-17T10:15:01;21.00;47.10
12839;DHT22;6486;51.034;5.262;2024-03-17T10:17:33;21.00;47.10
12839;DHT22;6486;51.034;5.262;2024-03-17T10:20:20;21.00;47.10
12839;DHT22;6486;51.034;5.262;2024-03-17T10:23:06;21.00;47.10
12839;DHT22;6486;51.034;5.262;2024-03-17T10:25:38;21.00;47.10
12839;DHT22;6486;51.034;5.262;2024-03-17T10:28:13;21.00;47.10
12839;DHT22;6486;51.034;5.262;2024-03-17T10:30:40;21.00;47.10
12839;DHT22;6486;51.034;5.262;2024-03-17T10:33:07;21.00;47.20
12839;DHT22;6486;51.034;5.262;2024-03-17T10:35:38;21.00;47.20
12839;DHT22;6486;51.034;5.262;2024-03-17T10:38:09;21.00;47.10
12839;DHT22;6486;51.034;5.262;2024-03-17T10:40:37;21.00;47.10
12839;DHT22;6486;51.034;5.262;2024-03-17T10:43:05;21.00;47.20
12839;DHT22;6486;51.034;5.262;2024-03-17T10:45:32;21.00;47.20
12839;DHT22;6486;51.034;5.262;2024-03-17T10:48:07;21.00;47.20
12839;DHT22;6486;51.034;5.262;2024-03-17T10:50:36;21.00;47.20
12839;DHT22;6486;51.034;5.262;2024-03-17T10:53:06;21.00;47.20
12839;DHT22;6486;51.034;5.262;2024-03-17T10:55:44;21.00;47.20
12839;DHT22;6486;51.034;5.262;2024-03-17T10:58:31;21.00;47.20
12839;DHT22;6486;51.034;5.262;2024-03-17T11:00:59;21.00;47.20
12839;DHT22;6486;51.034;5.262;2024-03-17T11:03:27;21.00;47.20
12839;DHT22;6486;51.034;5.262;2024-03-17T11:05:52;21.00;47.20
12839;DHT22;6486;51.034;5.262;2024-03-17T11:08:19;21.00;47.20
12839;DHT22;6486;51.034;5.262;2024-03-17T11:10:52;21.00;47.20
12839;DHT22;6486;51.034;5.262;2024-03-17T11:13:28;21.00;47.20
12839;DHT22;6486;51.034;5.262;2024-03-17T11:15:56;21.00;47.20
12839;DHT22;6486;51.034;5.262;2024-03-17T11:23:30;21.00;47.20
12839;DHT22;6486;51.034;5.262;2024-03-17T11:25:57;21.00;47.20
12839;DHT22;6486;51.034;5.262;2024-03-17T11:33:58;21.00;47.30
12839;DHT22;6486;51.034;5.262;2024-03-17T11:38:58;21.00;47.30
12839;DHT22;6486;51.034;5.262;2024-03-17T11:41:38;21.00;47.30
12839;DHT22;6486;51.034;5.262;2024-03-17T11:46:55;21.00;47.30
12839;DHT22;6486;51.034;5.262;2024-03-17T11:51:57;21.00;47.30
12839;DHT22;6486;51.034;5.262;2024-03-17T11:54:25;21.00;47.30
12839;DHT22;6486;51.034;5.262;2024-03-17T11:56:53;21.00;47.30
12839;DHT22;6486;51.034;5.262;2024-03-17T11:59:20;21.00;47.20
12839;DHT22;6486;51.034;5.262;2024-03-17T12:01:47;21.00;47.20
12839;DHT22;6486;51.034;5.262;2024-03-17T12:04:14;21.00;47.20
12839;DHT22;6486;51.034;5.262;2024-03-17T12:06:44;21.00;47.20
12839;DHT22;6486;51.034;5.262;2024-03-17T12:09:20;21.00;47.20
12839;DHT22;6486;51.034;5.262;2024-03-17T12:12:31;21.00;47.20
12839;DHT22;6486;51.034;5.262;2024-03-17T12:14:33;21.00;47.20
12839;DHT22;6486;51.034;5.262;2024-03-17T12:17:00;21.00;47.20
12839;DHT22;6486;51.034;5.262;2024-03-17T12:19:27;21.00;47.20
12839;DHT22;6486;51.034;5.262;2024-03-17T12:21:55;21.00;47.20
12839;DHT22;6486;51.034;5.262;2024-03-17T12:24:22;21.00;47.20
12839;DHT22;6486;51.034;5.262;2024-03-17T12:26:49;21.00;47.20
12839;DHT22;6486;51.034;5.262;2024-03-17T12:32:02;21.00;47.20
12839;DHT22;6486;51.034;5.262;2024-03-17T12:34:30;21.00;47.20
12839;DHT22;6486;51.034;5.262;2024-03-17T12:36:57;21.10;47.20
12839;DHT22;6486;51.034;5.262;2024-03-17T12:39:30;21.10;47.20
12839;DHT22;6486;51.034;5.262;2024-03-17T12:44:51;21.10;47.20
12839;DHT22;6486;51.034;5.262;2024-03-17T12:47:21;21.10;47.30
12839;DHT22;6486;51.034;5.262;2024-03-17T12:49:51;21.10;47.20
12839;DHT22;6486;51.034;5.262;2024-03-17T12:57:49;21.10;47.20
12839;DHT22;6486;51.034;5.262;2024-03-17T13:00:33;21.10;47.30
12839;DHT22;6486;51.034;5.262;2024-03-17T13:03:07;21.10;47.30
12839;DHT22;6486;51.034;5.262;2024-03-17T13:05:35;21.10;47.30
12839;DHT22;6486;51.034;5.262;2024-03-17T13:08:02;21.10;47.20
12839;DHT22;6486;51.034;5.262;2024-03-17T13:10:30;21.10;47.30
12839;DHT22;6486;51.034;5.262;2024-03-17T13:13:03;21.10;47.30
12839;DHT22;6486;51.034;5.262;2024-03-17T13:15:30;21.10;47.20
12839;DHT22;6486;51.034;5.262;2024-03-17T13:17:57;21.10;47.90
12839;DHT22;6486;51.034;5.262;2024-03-17T13:20:22;21.10;47.30
12839;DHT22;6486;51.034;5.262;2024-03-17T13:22:48;21.10;47.20
12839;DHT22;6486;51.034;5.262;2024-03-17T13:25:18;21.10;47.20
12839;DHT22;6486;51.034;5.262;2024-03-17T13:27:47;21.10;47.20
12839;DHT22;6486;51.034;5.262;2024-03-17T13:30:15;21.10;47.30
12839;DHT22;6486;51.034;5.262;2024-03-17T13:32:41;21.10;47.30
12839;DHT22;6486;51.034;5.262;2024-03-17T13:35:20;21.10;47.30
12839;DHT22;6486;51.034;5.262;2024-03-17T13:37:47;21.10;47.30
12839;DHT22;6486;51.034;5.262;2024-03-17T13:40:14;21.10;47.30
12839;DHT22;6486;51.034;5.262;2024-03-17T13:42:47;21.10;47.30
12839;DHT22;6486;51.034;5.262;2024-03-17T13:45:13;21.00;47.20
12839;DHT22;6486;51.034;5.262;2024-03-17T13:47:46;21.00;47.20
12839;DHT22;6486;51.034;5.262;2024-03-17T13:50:12;21.00;47.20
12839;DHT22;6486;51.034;5.262;2024-03-17T13:52:39;21.00;47.30
12839;DHT22;6486;51.034;5.262;2024-03-17T13:55:19;21.00;47.20
12839;DHT22;6486;51.034;5.262;2024-03-17T13:57:53;21.00;47.30
12839;DHT22;6486;51.034;5.262;2024-03-17T14:00:23;21.00;47.20
12839;DHT22;6486;51.034;5.262;2024-03-17T14:02:50;21.10;47.30
12839;DHT22;6486;51.034;5.262;2024-03-17T14:05:21;21.00;47.30
12839;DHT22;6486;51.034;5.262;2024-03-17T14:07:47;21.00;47.20
12839;DHT22;6486;51.034;5.262;2024-03-17T14:10:18;21.00;47.20
12839;DHT22;6486;51.034;5.262;2024-03-17T14:12:45;21.00;47.30
12839;DHT22;6486;51.034;5.262;2024-03-17T14:15:12;21.00;47.30
12839;DHT22;6486;51.034;5.262;2024-03-17T14:17:39;21.00;47.30
12839;DHT22;6486;51.034;5.262;2024-03-17T14:20:05;21.00;47.30
12839;DHT22;6486;51.034;5.262;2024-03-17T14:22:34;21.00;47.30
12839;DHT22;6486;51.034;5.262;2024-03-17T14:25:00;21.00;47.30
12839;DHT22;6486;51.034;5.262;2024-03-17T14:27:26;21.00;47.30
12839;DHT22;6486;51.034;5.262;2024-03-17T14:29:53;21.00;47.30
12839;DHT22;6486;51.034;5.262;2024-03-17T14:32:19;21.00;47.30
12839;DHT22;6486;51.034;5.262;2024-03-17T14:34:46;21.00;47.30
12839;DHT22;6486;51.034;5.262;2024-03-17T14:37:12;21.00;47.30
12839;DHT22;6486;51.034;5.262;2024-03-17T14:39:39;21.00;47.30
12839;DHT22;6486;51.034;5.262;2024-03-17T14:42:06;21.00;47.30
12839;DHT22;6486;51.034;5.262;2024-03-17T14:44:34;21.00;47.40
12839;DHT22;6486;51.034;5.262;2024-03-17T14:47:01;21.00;47.30
12839;DHT22;6486;51.034;5.262;2024-03-17T14:49:28;21.00;47.40
12839;DHT22;6486;51.034;5.262;2024-03-17T14:51:53;21.00;47.30
12839;DHT22;6486;51.034;5.262;2024-03-17T14:54:19;21.00;47.40
12839;DHT22;6486;51.034;5.262;2024-03-17T14:56:45;21.00;47.40
12839;DHT22;6486;51.034;5.262;2024-03-17T14:59:11;21.00;47.40
12839;DHT22;6486;51.034;5.262;2024-03-17T15:01:37;21.00;47.40
12839;DHT22;6486;51.034;5.262;2024-03-17T15:04:03;21.00;47.40
12839;DHT22;6486;51.034;5.262;2024-03-17T15:06:30;21.00;47.40
12839;DHT22;6486;51.034;5.262;2024-03-17T15:08:56;21.00;47.40
12839;DHT22;6486;51.034;5.262;2024-03-17T15:11:22;21.00;47.40
12839;DHT22;6486;51.034;5.262;2024-03-17T15:13:47;21.00;47.40
12839;DHT22;6486;51.034;5.262;2024-03-17T15:16:14;21.00;47.40
12839;DHT22;6486;51.034;5.262;2024-03-17T15:18:41;21.00;47.40
12839;DHT22;6486;51.034;5.262;2024-03-17T15:21:08;21.00;47.40
12839;DHT22;6486;51.034;5.262;2024-03-17T15:23:34;21.00;47.40
12839;DHT22;6486;51.034;5.262;2024-03-17T15:26:04;21.00;47.40
12839;DHT22;6486;51.034;5.262;2024-03-17T15:28:42;21.00;47.40
12839;DHT22;6486;51.034;5.262;2024-03-17T15:31:11;21.00;47.50
12839;DHT22;6486;51.034;5.262;2024-03-17T15:33:38;21.00;47.50
12839;DHT22;6486;51.034;5.262;2024-03-17T15:36:09;21.00;47.50
12839;DHT22;6486;51.034;5.262;2024-03-17T15:38:36;20.90;47.40
12839;DHT22;6486;51.034;5.262;2024-03-17T15:41:09;20.90;47.40
12839;DHT22;6486;51.034;5.262;2024-03-17T15:43:39;20.90;47.40
12839;DHT22;6486;51.034;5.262;2024-03-17T15:46:08;20.90;47.40
12839;DHT22;6486;51.034;5.262;2024-03-17T15:48:34;20.90;47.40
12839;DHT22;6486;51.034;5.262;2024-03-17T15:51:00;20.90;47.40
12839;DHT22;6486;51.034;5.262;2024-03-17T15:53:26;20.90;47.40
12839;DHT22;6486;51.034;5.262;2024-03-17T15:56:00;20.90;47.40
12839;DHT22;6486;51.034;5.262;2024-03-17T15:58:28;20.90;47.40
12839;DHT22;6486;51.034;5.262;2024-03-17T16:00:54;20.90;47.50
12839;DHT22;6486;51.034;5.262;2024-03-17T16:03:21;20.90;47.50
12839;DHT22;6486;51.034;5.262;2024-03-17T16:05:51;20.90;47.50
12839;DHT22;6486;51.034;5.262;2024-03-17T16:08:19;20.90;47.50
12839;DHT22;6486;51.034;5.262;2024-03-17T16:10:52;20.90;47.50
12839;DHT22;6486;51.034;5.262;2024-03-17T16:13:22;20.90;48.10
12839;DHT22;6486;51.034;5.262;2024-03-17T16:15:53;20.90;47.50
12839;DHT22;6486;51.034;5.262;2024-03-17T16:18:20;20.90;47.50
12839;DHT22;6486;51.034;5.262;2024-03-17T16:20:57;20.90;47.50
12839;DHT22;6486;51.034;5.262;2024-03-17T16:23:26;20.90;47.60